Time;durP1;ratioP1;P1;durP2;ratioP2;P2;SDS_P1;SDS_P2;PMS_P1;PMS_P2;Temp;Humidity;BMP_temperature;BMP_pressure;BME280_temperature;BME280_humidity;BME280_pressure;Samples;Min_cycle;Max_cycle;Signal;HPM_P1;HPM_P2
2023/12/12 00:01:10;;;;;;;14.05;2.78;;;;;;;15.84;51.19;100617.19;5060687;28;20039;-61
2023/12/12 00:03:35;;;;;;;16.08;2.55;;;;;;;15.84;49.74;100609.94;5076989;28;20452;-61
2023/12/12 00:06:00;;;;;;;12.57;2.25;;;;;;;15.81;49.88;100614.81;5076323;28;20024;-61
2023/12/12 00:08:26;;;;;;;7.15;2.65;;;;;;;15.81;50.45;100620.22;5094702;28;20040;-61
2023/12/12 00:10:51;;;;;;;15.45;2.20;;;;;;;15.80;50.79;100623.97;5058496;28;20407;-61
2023/12/12 00:13:17;;;;;;;7.35;1.88;;;;;;;15.77;50.32;100617.03;5075146;28;20028;-61
2023/12/12 00:15:43;;;;;;;4.50;2.22;;;;;;;15.80;51.57;100615.84;5035309;28;20045;-61
2023/12/12 00:18:09;;;;;;;10.02;2.30;;;;;;;15.78;49.93;100607.91;5028536;28;20503;-61
2023/12/12 00:20:34;;;;;;;12.27;2.40;;;;;;;15.80;50.80;100613.16;5074160;28;20039;-64
2023/12/12 00:23:00;;;;;;;10.57;2.15;;;;;;;15.80;50.14;100619.38;5074756;28;20380;-64
2023/12/12 00:25:25;;;;;;;12.48;2.40;;;;;;;15.80;51.41;100615.84;5093031;28;20420;-65
2023/12/12 00:27:51;;;;;;;18.95;3.60;;;;;;;15.79;50.99;100597.94;5092877;28;20028;-64
2023/12/12 00:30:16;;;;;;;13.50;2.30;;;;;;;15.78;50.99;100607.91;5074737;28;20079;-64
2023/12/12 00:32:41;;;;;;;9.40;2.10;;;;;;;15.73;51.01;100600.31;5093460;28;20036;-64
2023/12/12 00:35:07;;;;;;;10.65;1.92;;;;;;;15.71;50.37;100596.94;5075969;28;20028;-64
2023/12/12 00:37:32;;;;;;;10.38;1.77;;;;;;;15.67;49.79;100600.97;5059337;28;20109;-64
2023/12/12 00:39:58;;;;;;;8.02;1.67;;;;;;;15.61;50.23;100590.84;5075970;28;20078;-64
2023/12/12 00:42:23;;;;;;;8.57;2.38;;;;;;;15.58;51.28;100595.72;5094150;28;20044;-64
2023/12/12 00:44:48;;;;;;;9.32;1.90;;;;;;;15.54;50.01;100594.41;5075959;28;20032;-64
2023/12/12 00:47:14;;;;;;;8.57;1.80;;;;;;;15.48;50.90;100595.91;5060041;28;20547;-64
2023/12/12 00:49:40;;;;;;;7.93;2.10;;;;;;;15.41;49.89;100594.00;5035998;28;20110;-65
2023/12/12 00:52:07;;;;;;;7.32;1.50;;;;;;;15.36;49.84;100599.88;5068182;28;20102;-64
2023/12/12 00:54:32;;;;;;;7.75;1.65;;;;;;;15.32;50.45;100600.41;5056840;28;20040;-65
2023/12/12 00:56:58;;;;;;;7.75;2.00;;;;;;;15.22;50.19;100587.03;5074342;28;20028;-64
2023/12/12 00:59:23;;;;;;;11.63;2.03;;;;;;;15.21;50.20;100593.47;5056777;28;20090;-64
2023/12/12 01:01:49;;;;;;;9.45;2.05;;;;;;;15.15;51.05;100586.03;5074470;28;20029;-64
2023/12/12 01:04:14;;;;;;;13.00;2.67;;;;;;;15.09;50.91;100584.81;5056373;28;20102;-64
2023/12/12 01:06:40;;;;;;;14.52;2.65;;;;;;;15.10;49.87;100585.69;5074253;28;20059;-64
2023/12/12 01:09:06;;;;;;;14.68;3.38;;;;;;;15.07;50.31;100584.13;5056069;28;20032;-64
2023/12/12 01:11:32;;;;;;;12.63;2.00;;;;;;;15.06;51.30;100589.69;5072069;28;20100;-64
2023/12/12 01:13:58;;;;;;;16.77;3.10;;;;;;;15.04;51.42;100580.94;5073792;28;20044;-64
2023/12/12 01:16:23;;;;;;;13.45;2.90;;;;;;;15.04;50.15;100580.94;5074336;28;20040;-64
2023/12/12 01:18:48;;;;;;;13.55;2.70;;;;;;;15.03;51.07;100580.06;5074732;28;20029;-64
2023/12/12 01:21:14;;;;;;;12.73;2.30;;;;;;;15.00;50.13;100579.56;5040167;28;20033;-64
2023/12/12 01:23:54;;;;;;;10.65;2.17;;;;;;;14.99;51.80;100576.00;5074499;28;20096;-64
2023/12/12 01:26:22;;;;;;;15.40;2.28;;;;;;;15.00;50.93;100579.56;5061655;28;20028;-64
2023/12/12 01:28:48;;;;;;;18.80;2.70;;;;;;;14.97;50.26;100564.53;5094130;28;20400;-62
2023/12/12 01:31:16;;;;;;;16.92;2.50;;;;;;;14.98;51.61;100573.50;5074999;28;20028;-60
2023/12/12 01:33:42;;;;;;;20.92;4.25;;;;;;;14.97;50.17;100574.47;5061780;28;20033;-61
2023/12/12 01:36:08;;;;;;;10.55;2.60;;;;;;;14.94;50.78;100572.09;5057899;28;20040;-60
2023/12/12 01:38:34;;;;;;;19.88;3.17;;;;;;;14.94;51.43;100582.91;5057772;28;20045;-61
2023/12/12 01:40:59;;;;;;;14.23;2.58;;;;;;;14.91;50.17;100575.97;5041046;28;20032;-61
2023/12/12 01:43:26;;;;;;;14.10;3.60;;;;;;;14.88;50.71;100576.31;5057640;28;20503;-60
2023/12/12 01:45:54;;;;;;;18.33;3.50;;;;;;;14.86;50.74;100575.63;5057691;28;20036;-61
2023/12/12 01:48:20;;;;;;;11.00;3.25;;;;;;;14.86;52.05;100578.31;5040691;28;20111;-60
2023/12/12 01:50:45;;;;;;;16.45;3.58;;;;;;;14.85;50.95;100576.63;5057153;28;20159;-64
2023/12/12 01:53:13;;;;;;;13.88;2.75;;;;;;;14.87;51.41;100584.56;5057829;28;20471;-62
2023/12/12 01:55:39;;;;;;;18.50;3.25;;;;;;;14.89;51.52;100585.25;5057898;28;20032;-60
2023/12/12 01:58:04;;;;;;;13.38;3.28;;;;;;;14.90;52.17;100584.25;5057199;28;20020;-60
2023/12/12 02:00:31;;;;;;;16.75;4.07;;;;;;;14.90;51.56;100587.78;5056022;28;20025;-60
2023/12/12 02:02:57;;;;;;;14.95;3.28;;;;;;;14.92;50.87;100587.63;5057269;28;20039;-61
2023/12/12 02:05:24;;;;;;;18.55;2.65;;;;;;;14.91;50.48;100584.06;5040664;28;20012;-60
2023/12/12 02:07:51;;;;;;;18.02;3.00;;;;;;;14.93;51.37;100589.31;5048635;28;20070;-64
2023/12/12 02:10:16;;;;;;;18.50;3.03;;;;;;;14.92;51.60;100583.06;5057821;28;20037;-60
2023/12/12 02:12:42;;;;;;;14.90;3.05;;;;;;;14.91;50.81;100584.06;5075105;28;20515;-61
2023/12/12 02:15:08;;;;;;;10.80;2.13;;;;;;;14.93;51.40;100584.78;5056988;28;20392;-61
2023/12/12 02:17:34;;;;;;;10.70;2.50;;;;;;;14.96;50.50;100586.31;5057164;28;20029;-61
2023/12/12 02:20:00;;;;;;;18.73;3.65;;;;;;;14.95;50.99;100571.13;5057001;28;20028;-60
2023/12/12 02:22:25;;;;;;;9.20;2.15;;;;;;;14.96;51.52;100578.22;5056659;28;20164;-61
2023/12/12 02:24:50;;;;;;;21.33;3.20;;;;;;;14.93;51.84;100578.53;5057297;28;20483;-61
2023/12/12 02:27:16;;;;;;;16.35;4.07;;;;;;;14.96;51.90;100573.63;5040305;28;20030;-60
2023/12/12 02:29:42;;;;;;;19.38;2.35;;;;;;;14.94;51.20;100570.25;5040062;28;20023;-60
2023/12/12 02:32:07;;;;;;;13.27;2.13;;;;;;;14.99;51.80;100575.19;5056882;28;20525;-61
2023/12/12 02:34:33;;;;;;;25.27;2.95;;;;;;;14.96;51.32;100556.63;5056570;28;20033;-61
2023/12/12 02:36:58;;;;;;;17.77;2.78;;;;;;;15.00;52.25;100563.38;5056634;28;20531;-61
2023/12/12 02:39:23;;;;;;;10.93;2.55;;;;;;;15.03;50.77;100568.44;5056548;28;20089;-65
2023/12/12 02:41:49;;;;;;;9.82;2.60;;;;;;;15.03;51.54;100563.91;5040011;28;20388;-64
2023/12/12 02:44:14;;;;;;;10.23;2.47;;;;;;;15.02;51.14;100558.66;5055658;28;20480;-64
2023/12/12 02:46:40;;;;;;;12.60;2.58;;;;;;;15.03;50.89;100563.91;5056445;28;20036;-64
2023/12/12 02:49:06;;;;;;;19.63;2.90;;;;;;;15.05;51.69;100556.47;5074149;28;20049;-64
2023/12/12 02:51:31;;;;;;;10.80;2.10;;;;;;;15.05;51.12;100555.63;5056464;28;20086;-64
2023/12/12 02:53:56;;;;;;;10.85;2.28;;;;;;;15.01;51.62;100544.34;5056191;28;20040;-64
2023/12/12 02:56:22;;;;;;;17.17;2.67;;;;;;;15.03;51.42;100550.41;5056387;28;20082;-64
2023/12/12 02:58:47;;;;;;;19.83;4.30;;;;;;;15.04;52.02;100548.56;5039292;28;20053;-64
2023/12/12 03:01:13;;;;;;;21.88;3.35;;;;;;;15.03;51.11;100557.66;5073972;28;20089;-65
2023/12/12 03:03:39;;;;;;;15.05;2.63;;;;;;;15.02;51.94;100551.41;5056247;28;20024;-64
2023/12/12 03:06:05;;;;;;;17.50;3.42;;;;;;;14.97;51.01;100545.66;5056142;28;20403;-65
2023/12/12 03:08:30;;;;;;;17.08;3.35;;;;;;;14.98;50.93;100550.06;5056296;28;20044;-64
2023/12/12 03:10:56;;;;;;;14.40;2.72;;;;;;;14.97;50.88;100555.59;5055959;28;20059;-65
2023/12/12 03:13:21;;;;;;;14.55;2.42;;;;;;;14.98;50.84;100546.50;5056237;28;20035;-64
2023/12/12 03:15:48;;;;;;;12.73;4.28;;;;;;;14.96;52.30;100545.84;5039755;28;20028;-64
2023/12/12 03:18:13;;;;;;;15.10;3.40;;;;;;;14.96;51.60;100540.44;5055943;28;20035;-64
2023/12/12 03:20:39;;;;;;;31.10;3.65;;;;;;;14.95;52.30;100544.13;5055598;28;20108;-64
2023/12/12 03:23:04;;;;;;;21.73;3.40;;;;;;;14.95;52.13;100538.75;5039085;28;20090;-64
2023/12/12 03:25:29;;;;;;;12.82;2.90;;;;;;;14.98;51.07;100533.88;5073508;28;20056;-64
2023/12/12 03:27:55;;;;;;;15.23;3.53;;;;;;;14.98;51.96;100533.03;5073443;28;20127;-64
2023/12/12 03:30:20;;;;;;;14.20;3.08;;;;;;;14.99;51.27;100540.94;5072479;28;20036;-64
2023/12/12 03:32:46;;;;;;;15.05;2.58;;;;;;;14.99;50.80;100532.03;5055418;28;20043;-65
2023/12/12 03:35:11;;;;;;;13.00;2.55;;;;;;;15.00;52.53;100531.00;5055590;28;20031;-64
2023/12/12 03:37:37;;;;;;;13.63;2.80;;;;;;;14.98;51.46;100516.84;5055368;28;20404;-64
2023/12/12 03:40:03;;;;;;;19.67;2.75;;;;;;;15.01;51.39;100521.91;5073383;28;20060;-64
2023/12/12 03:42:28;;;;;;;9.07;2.72;;;;;;;15.04;51.43;100516.19;5055397;28;20094;-64
2023/12/12 03:44:54;;;;;;;27.38;2.38;;;;;;;15.05;50.86;100507.06;5038754;28;20078;-64
2023/12/12 03:47:19;;;;;;;16.75;2.58;;;;;;;15.06;51.85;100508.75;5045347;28;20044;-65
2023/12/12 03:49:44;;;;;;;18.17;2.92;;;;;;;15.08;51.88;100490.56;5055391;28;20037;-62
2023/12/12 03:52:10;;;;;;;12.30;2.72;;;;;;;15.10;51.51;100488.56;5055142;28;20036;-61
2023/12/12 03:54:36;;;;;;;20.13;3.25;;;;;;;15.13;51.12;100480.13;5072226;28;20555;-60
2023/12/12 03:57:02;;;;;;;14.98;3.08;;;;;;;15.15;51.22;100481.66;5055443;28;20388;-61
2023/12/12 03:59:28;;;;;;;13.13;3.25;;;;;;;15.19;51.54;100476.72;5055495;28;20036;-61
2023/12/12 04:01:53;;;;;;;16.35;2.65;;;;;;;15.20;51.91;100466.78;5054972;28;20056;-61
2023/12/12 04:04:18;;;;;;;10.90;2.45;;;;;;;15.23;52.25;100461.91;5055393;28;20033;-61
2023/12/12 04:06:47;;;;;;;11.70;2.80;;;;;;;15.22;51.07;100453.97;5072811;28;20033;-61
2023/12/12 04:09:13;;;;;;;10.38;2.40;;;;;;;15.22;52.47;100454.81;5054773;28;20131;-60
2023/12/12 04:11:38;;;;;;;16.40;2.78;;;;;;;15.16;51.26;100442.00;5021915;28;20032;-61
2023/12/12 04:14:04;;;;;;;15.90;2.58;;;;;;;15.18;51.15;100453.47;5072964;28;20499;-60
2023/12/12 04:16:29;;;;;;;10.23;2.83;;;;;;;15.11;50.63;100447.91;5037871;28;20032;-60
2023/12/12 04:18:54;;;;;;;16.88;2.92;;;;;;;15.11;51.68;100457.84;5038165;28;20044;-61
2023/12/12 04:21:20;;;;;;;11.80;3.30;;;;;;;15.06;52.04;100439.47;5053933;28;20040;-61
2023/12/12 04:23:45;;;;;;;20.42;2.90;;;;;;;15.04;51.10;100455.00;5054690;28;20158;-61
2023/12/12 04:26:12;;;;;;;21.60;3.33;;;;;;;15.03;50.80;100445.19;5072711;28;20412;-61
2023/12/12 04:28:38;;;;;;;16.30;2.40;;;;;;;14.99;52.01;100443.03;5038514;28;20036;-61
2023/12/12 04:31:03;;;;;;;19.23;2.97;;;;;;;14.99;52.33;100443.84;5038675;28;20036;-61
2023/12/12 04:33:29;;;;;;;13.20;2.40;;;;;;;14.99;51.04;100443.03;5038812;28;20063;-60
2023/12/12 04:35:56;;;;;;;17.13;3.47;;;;;;;15.00;51.15;100442.00;5039221;28;20035;-60
2023/12/12 04:38:21;;;;;;;17.02;3.63;;;;;;;15.06;52.76;100444.03;5055081;28;20500;-61
2023/12/12 04:40:47;;;;;;;12.07;3.13;;;;;;;15.07;51.80;100426.84;5072531;28;20036;-61
2023/12/12 04:43:12;;;;;;;29.73;3.22;;;;;;;15.12;53.00;100432.56;5072858;28;20104;-60
2023/12/12 04:45:38;;;;;;;22.00;3.45;;;;;;;15.17;52.17;100422.09;5037892;28;20447;-61
2023/12/12 04:48:04;;;;;;;20.10;2.70;;;;;;;15.24;52.14;100435.78;5072493;28;20029;-61
2023/12/12 04:50:29;;;;;;;15.20;2.28;;;;;;;15.29;52.70;100434.25;5035825;28;20431;-60
2023/12/12 04:52:55;;;;;;;19.25;2.63;;;;;;;15.33;52.24;100434.75;5052304;28;20443;-60
2023/12/12 04:55:20;;;;;;;22.60;2.78;;;;;;;15.35;52.88;100433.59;5018151;28;20108;-61
2023/12/12 04:57:46;;;;;;;18.73;2.60;;;;;;;15.42;52.62;100429.19;5034434;28;20469;-61
2023/12/12 05:00:15;;;;;;;16.52;3.13;;;;;;;15.48;52.34;100423.13;5034855;28;20048;-64
2023/12/12 05:02:45;;;;;;;20.90;2.67;;;;;;;15.57;52.43;100422.13;5033915;28;20036;-64
2023/12/12 05:05:10;;;;;;;13.63;3.60;;;;;;;15.60;51.93;100413.69;5002313;28;20033;-64
2023/12/12 05:07:36;;;;;;;21.70;3.30;;;;;;;15.66;52.83;100418.38;5036334;28;20374;-64
2023/12/12 05:10:01;;;;;;;8.98;2.70;;;;;;;15.70;52.79;100410.78;5020647;28;20036;-64
2023/12/12 05:12:27;;;;;;;6.00;2.35;;;;;;;15.72;52.27;100409.59;5038140;28;20112;-64
2023/12/12 05:14:52;;;;;;;21.50;2.85;;;;;;;15.70;52.08;100406.22;5038274;28;20045;-64
2023/12/12 05:17:17;;;;;;;20.30;2.30;;;;;;;15.75;52.28;100397.59;5038176;28;20033;-64
2023/12/12 05:19:43;;;;;;;10.77;2.60;;;;;;;15.77;52.74;100410.94;5038150;28;20105;-64
2023/12/12 05:22:08;;;;;;;12.05;2.38;;;;;;;15.80;53.19;100407.91;5038014;28;20037;-64
2023/12/12 05:24:34;;;;;;;25.02;2.58;;;;;;;15.81;52.00;100404.16;5038085;28;20037;-64
2023/12/12 05:26:59;;;;;;;13.65;1.80;;;;;;;15.83;51.95;100408.38;5038257;28;20040;-64
2023/12/12 05:29:24;;;;;;;15.10;2.00;;;;;;;15.87;52.57;100408.88;5038161;28;20025;-64
2023/12/12 05:31:50;;;;;;;10.25;1.83;;;;;;;15.89;52.52;100409.53;5037962;28;20428;-64
2023/12/12 05:34:15;;;;;;;12.13;2.83;;;;;;;15.89;52.86;100409.53;5056254;28;20485;-64
2023/12/12 05:36:41;;;;;;;10.48;1.67;;;;;;;15.91;52.55;100407.53;5037952;28;20408;-64
2023/12/12 05:39:10;;;;;;;11.35;2.33;;;;;;;15.91;52.23;100412.94;5038018;28;20127;-64
2023/12/12 05:41:35;;;;;;;13.52;2.15;;;;;;;15.92;51.81;100418.13;5055672;28;20033;-64
2023/12/12 05:44:01;;;;;;;11.93;2.20;;;;;;;15.90;52.96;100412.06;5037904;28;20040;-65
2023/12/12 05:46:26;;;;;;;12.23;2.88;;;;;;;15.92;52.89;100417.28;5021645;28;20032;-64
2023/12/12 05:48:51;;;;;;;17.38;3.55;;;;;;;15.93;52.94;100402.78;5042854;28;20416;-64
2023/12/12 05:51:17;;;;;;;8.52;2.10;;;;;;;15.94;52.35;100407.19;5041449;28;20115;-64
2023/12/12 05:53:42;;;;;;;6.28;1.60;;;;;;;15.96;52.42;100394.31;5057524;28;20075;-65
2023/12/12 05:56:08;;;;;;;11.63;2.42;;;;;;;16.02;53.10;100399.03;5040384;28;20029;-65
2023/12/12 05:58:33;;;;;;;10.98;2.40;;;;;;;16.02;53.21;100389.09;5057575;28;20119;-64
2023/12/12 06:00:59;;;;;;;10.57;2.10;;;;;;;16.09;51.89;100392.75;5075313;28;20048;-66
2023/12/12 06:03:24;;;;;;;13.70;2.33;;;;;;;16.12;52.66;100391.56;5040803;28;20503;-65
2023/12/12 06:05:50;;;;;;;8.23;2.80;;;;;;;16.11;51.88;100392.56;5057337;28;20060;-64
2023/12/12 06:08:16;;;;;;;7.97;2.17;;;;;;;16.13;52.23;100396.81;5040590;28;20025;-64
2023/12/12 06:10:41;;;;;;;8.43;2.15;;;;;;;16.13;52.37;100390.56;5075164;28;20047;-60
2023/12/12 06:13:08;;;;;;;12.65;2.25;;;;;;;16.21;53.00;100387.81;5047540;28;20037;-61
2023/12/12 06:15:34;;;;;;;12.15;2.97;;;;;;;16.22;51.88;100389.47;5057181;28;20078;-60
2023/12/12 06:18:00;;;;;;;15.57;2.78;;;;;;;16.24;52.79;100387.47;5064145;28;20056;-61
2023/12/12 06:20:26;;;;;;;6.68;1.80;;;;;;;16.26;52.31;100380.00;5055525;28;20471;-61
2023/12/12 06:22:51;;;;;;;6.38;1.60;;;;;;;16.28;52.39;100377.97;5074958;28;20032;-61
2023/12/12 06:25:17;;;;;;;15.70;2.55;;;;;;;16.30;51.74;100381.34;5074726;28;20177;-61
2023/12/12 06:27:42;;;;;;;13.65;2.03;;;;;;;16.30;51.89;100375.94;5057263;28;20373;-61
2023/12/12 06:30:09;;;;;;;11.15;1.67;;;;;;;16.34;52.80;100382.66;5074607;28;20093;-61
2023/12/12 06:32:34;;;;;;;7.35;1.98;;;;;;;16.33;52.38;100364.78;5074418;28;20032;-61
2023/12/12 06:34:59;;;;;;;8.15;1.15;;;;;;;16.35;51.99;100368.13;5074569;28;20039;-61
2023/12/12 06:37:25;;;;;;;11.82;2.35;;;;;;;16.39;51.90;100364.03;5077872;28;20060;-61
2023/12/12 06:39:51;;;;;;;11.68;2.20;;;;;;;16.37;51.86;100352.56;5060191;28;20032;-61
2023/12/12 06:42:17;;;;;;;18.20;2.15;;;;;;;16.41;51.68;100367.44;5076662;28;20032;-60
2023/12/12 06:44:42;;;;;;;10.82;2.15;;;;;;;16.44;51.21;100361.66;5076565;28;20514;-61
2023/12/12 06:47:09;;;;;;;11.50;1.80;;;;;;;16.45;52.49;100357.09;5076504;28;20039;-61
2023/12/12 06:49:34;;;;;;;8.98;1.50;;;;;;;16.45;51.43;100347.13;5049090;28;20048;-61
2023/12/12 06:52:01;;;;;;;12.10;1.92;;;;;;;16.47;51.10;100347.78;5056785;28;20031;-61
2023/12/12 06:54:27;;;;;;;8.02;3.65;;;;;;;16.46;51.38;100351.50;5056956;28;20045;-62
2023/12/12 06:56:52;;;;;;;9.30;2.28;;;;;;;16.41;51.87;100334.16;5056670;28;20102;-61
2023/12/12 06:59:17;;;;;;;13.07;2.08;;;;;;;16.48;52.24;100343.22;5039352;28;20389;-61
2023/12/12 07:01:43;;;;;;;7.45;2.67;;;;;;;16.45;50.85;100336.31;5056376;28;20040;-61
2023/12/12 07:04:09;;;;;;;9.55;2.17;;;;;;;16.46;51.29;100337.16;5056249;28;20117;-61
2023/12/12 07:06:34;;;;;;;8.88;2.83;;;;;;;16.47;51.44;100334.25;5056167;28;20101;-61
2023/12/12 07:08:59;;;;;;;8.15;2.05;;;;;;;16.47;50.97;100328.84;5072928;28;20063;-61
2023/12/12 07:11:25;;;;;;;11.15;2.75;;;;;;;16.45;51.22;100325.50;5072391;28;20447;-60
2023/12/12 07:13:50;;;;;;;13.23;2.25;;;;;;;16.46;52.04;100324.47;5036707;28;20029;-60
2023/12/12 07:16:15;;;;;;;16.77;2.03;;;;;;;16.47;51.00;100318.03;5035394;28;20037;-61
2023/12/12 07:18:41;;;;;;;11.15;2.05;;;;;;;16.48;51.21;100325.13;5053783;28;20091;-60
2023/12/12 07:21:06;;;;;;;8.93;2.33;;;;;;;16.46;51.36;100319.06;5035958;28;20055;-60
2023/12/12 07:23:32;;;;;;;14.02;1.70;;;;;;;16.47;51.45;100318.03;5036043;28;20033;-61
2023/12/12 07:25:58;;;;;;;17.13;2.90;;;;;;;16.45;51.02;100309.25;5036230;28;20492;-62
2023/12/12 07:28:24;;;;;;;9.93;2.47;;;;;;;16.47;50.59;100311.81;5019437;28;20036;-60
2023/12/12 07:30:49;;;;;;;12.18;3.05;;;;;;;16.41;51.67;100307.97;5019189;28;20025;-60
2023/12/12 07:33:14;;;;;;;9.25;1.67;;;;;;;16.41;50.61;100312.50;5038446;28;20097;-61
2023/12/12 07:35:40;;;;;;;11.43;2.72;;;;;;;16.37;51.59;100312.03;5055842;28;20078;-61
2023/12/12 07:38:05;;;;;;;10.43;2.15;;;;;;;16.35;51.30;100314.06;5039459;28;20120;-61
2023/12/12 07:40:31;;;;;;;14.13;1.80;;;;;;;16.36;51.72;100310.34;5053651;28;20024;-61
2023/12/12 07:42:59;;;;;;;16.95;2.60;;;;;;;16.35;51.11;100305.13;5035554;28;20035;-61
2023/12/12 07:45:25;;;;;;;10.40;1.45;;;;;;;16.33;51.76;100297.22;5035873;28;20057;-60
2023/12/12 07:47:50;;;;;;;9.43;1.73;;;;;;;16.33;51.08;100305.31;5035722;28;20064;-60
2023/12/12 07:50:17;;;;;;;10.35;1.80;;;;;;;16.32;51.93;100292.81;5051714;28;20484;-60
2023/12/12 07:52:43;;;;;;;10.23;2.83;;;;;;;16.33;51.41;100308.84;5056130;28;20542;-60
2023/12/12 07:55:08;;;;;;;11.85;1.77;;;;;;;16.35;51.85;100300.56;5038700;28;20041;-60
2023/12/12 07:57:34;;;;;;;12.50;1.77;;;;;;;16.33;51.45;100296.34;5038804;28;20036;-61
2023/12/12 07:59:59;;;;;;;12.00;1.45;;;;;;;16.38;51.30;100297.50;5055410;28;20106;-61
2023/12/12 08:02:25;;;;;;;10.82;1.98;;;;;;;16.41;51.50;100301.69;5073162;28;20029;-60
2023/12/12 08:04:51;;;;;;;9.35;2.22;;;;;;;16.43;50.67;100303.19;5055377;28;20032;-61
2023/12/12 08:07:16;;;;;;;8.82;1.70;;;;;;;16.46;50.72;100300.16;5055497;28;20071;-61
2023/12/12 08:09:42;;;;;;;14.75;2.03;;;;;;;16.50;50.56;100296.03;5055316;28;20540;-61
2023/12/12 08:12:07;;;;;;;14.35;1.83;;;;;;;16.51;51.54;100291.47;5055274;28;20094;-61
2023/12/12 08:14:33;;;;;;;5.00;1.30;;;;;;;16.55;50.58;100293.69;5073000;28;20074;-61
2023/12/12 08:16:58;;;;;;;6.25;1.48;;;;;;;16.56;51.33;100289.09;5072861;28;20039;-60
2023/12/12 08:19:23;;;;;;;8.27;1.88;;;;;;;16.57;51.39;100291.63;5073010;28;20036;-60
2023/12/12 08:21:49;;;;;;;8.57;2.20;;;;;;;16.60;51.64;100291.28;5055594;28;20039;-61
2023/12/12 08:24:15;;;;;;;4.30;1.65;;;;;;;16.63;50.82;100280.09;5055456;28;20048;-60
2023/12/12 08:26:44;;;;;;;13.00;1.80;;;;;;;16.69;51.20;100283.94;5072747;28;20510;-61
2023/12/12 08:29:13;;;;;;;9.30;1.67;;;;;;;16.75;50.61;100284.03;5054908;28;20025;-61
2023/12/12 08:31:38;;;;;;;3.78;1.17;;;;;;;16.80;50.79;100278.94;5038188;28;20025;-61
2023/12/12 08:34:04;;;;;;;7.20;1.83;;;;;;;16.84;50.04;100271.28;5037471;28;20032;-60
2023/12/12 08:36:29;;;;;;;9.80;1.58;;;;;;;16.86;50.25;100263.84;5072792;28;20032;-61
2023/12/12 08:38:55;;;;;;;8.35;1.25;;;;;;;16.92;50.75;100267.69;5054650;28;20033;-60
2023/12/12 08:41:21;;;;;;;10.57;2.38;;;;;;;16.97;50.85;100270.66;5054773;28;20450;-61
2023/12/12 08:43:46;;;;;;;9.25;1.45;;;;;;;17.00;50.43;100264.91;5041882;28;20032;-61
2023/12/12 08:46:11;;;;;;;10.38;1.00;;;;;;;17.05;49.90;100265.19;5058752;28;20373;-61
2023/12/12 08:48:37;;;;;;;5.55;2.00;;;;;;;17.00;50.38;100256.78;5076352;28;20036;-61
2023/12/12 08:51:02;;;;;;;4.97;1.77;;;;;;;17.02;50.24;100255.56;5076585;28;20033;-61
2023/12/12 08:53:28;;;;;;;9.50;1.83;;;;;;;17.06;50.41;100250.59;5058528;28;20166;-61
2023/12/12 08:55:54;;;;;;;5.38;1.27;;;;;;;17.10;50.74;100238.41;5076312;28;20051;-60
2023/12/12 08:58:23;;;;;;;9.23;1.42;;;;;;;17.09;50.20;100252.94;5058564;28;20505;-61
2023/12/12 09:00:52;;;;;;;7.32;2.05;;;;;;;17.02;50.73;100238.47;5076390;28;20524;-61
2023/12/12 09:03:18;;;;;;;8.32;2.13;;;;;;;17.06;50.86;100237.91;5076383;28;20611;-61
2023/12/12 09:05:44;;;;;;;3.13;1.25;;;;;;;17.06;50.75;100231.66;5076312;28;20048;-61
2023/12/12 09:08:10;;;;;;;4.28;1.23;;;;;;;17.05;50.34;100221.88;5041656;28;20116;-61
2023/12/12 09:10:36;;;;;;;4.72;1.30;;;;;;;17.05;50.52;100216.47;5076213;28;20056;-61
2023/12/12 09:13:02;;;;;;;4.22;1.30;;;;;;;17.06;51.07;100215.41;5076506;28;20059;-60
2023/12/12 09:15:27;;;;;;;2.75;1.33;;;;;;;17.08;50.95;100207.97;5076908;28;20388;-61
2023/12/12 09:17:52;;;;;;;11.52;1.60;;;;;;;17.11;50.93;100208.44;5059413;28;20077;-61
2023/12/12 09:20:18;;;;;;;4.47;1.08;;;;;;;17.16;50.47;100211.44;5042387;28;20476;-61
2023/12/12 09:22:43;;;;;;;4.80;1.13;;;;;;;17.21;50.18;100192.75;5058078;28;20455;-60
2023/12/12 09:25:09;;;;;;;6.93;1.23;;;;;;;17.29;50.24;100199.94;5058269;28;20020;-59
2023/12/12 09:27:34;;;;;;;2.22;1.27;;;;;;;17.33;50.83;100195.84;5057921;28;20021;-59
2023/12/12 09:30:00;;;;;;;6.72;1.50;;;;;;;17.36;50.69;100190.06;5057947;28;20530;-59
2023/12/12 09:32:26;;;;;;;4.95;1.42;;;;;;;17.40;49.94;100202.16;5075833;28;20479;-59
2023/12/12 09:34:51;;;;;;;3.28;1.50;;;;;;;17.47;50.30;100203.09;5057779;28;20044;-59
2023/12/12 09:37:17;;;;;;;8.05;1.45;;;;;;;17.51;50.39;100185.44;5075602;28;20048;-60
2023/12/12 09:39:42;;;;;;;3.30;1.20;;;;;;;17.55;50.62;100188.66;5075700;28;20021;-60
2023/12/12 09:42:12;;;;;;;6.95;1.25;;;;;;;17.58;50.55;100178.28;5040954;28;20445;-59
2023/12/12 09:44:41;;;;;;;9.40;1.98;;;;;;;17.63;50.00;100175.84;5075471;28;20025;-60
2023/12/12 09:47:08;;;;;;;7.22;1.30;;;;;;;17.71;50.13;100181.13;5057693;28;20028;-60
2023/12/12 09:49:34;;;;;;;8.43;1.23;;;;;;;17.81;49.92;100172.72;5057507;28;20095;-60
2023/12/12 09:52:01;;;;;;;13.02;1.60;;;;;;;17.82;50.14;100174.38;5057423;28;20476;-60
2023/12/12 09:54:26;;;;;;;6.10;1.65;;;;;;;17.82;50.47;100163.53;5057359;28;20497;-60
2023/12/12 09:56:53;;;;;;;13.93;1.52;;;;;;;17.81;50.11;100159.97;5041092;28;20396;-60
2023/12/12 09:59:19;;;;;;;5.35;1.17;;;;;;;17.84;50.30;100150.63;5040851;28;20033;-60
2023/12/12 10:01:47;;;;;;;5.95;1.20;;;;;;;17.89;49.89;100143.63;5057419;28;20032;-61
2023/12/12 10:04:13;;;;;;;4.05;1.40;;;;;;;17.95;49.94;100142.81;5058008;28;20111;-60
2023/12/12 10:06:42;;;;;;;7.18;1.10;;;;;;;17.98;50.11;100137.03;5041180;28;20177;-60
2023/12/12 10:09:09;;;;;;;8.32;1.17;;;;;;;18.04;49.31;100135.41;5041062;28;20506;-60
2023/12/12 10:11:34;;;;;;;2.00;1.02;;;;;;;18.10;50.03;100122.94;5058248;28;20067;-60
2023/12/12 10:14:00;;;;;;;10.02;2.33;;;;;;;18.15;49.83;100120.47;5075292;28;20492;-60
2023/12/12 10:16:26;;;;;;;3.10;1.27;;;;;;;18.19;49.30;100113.66;5074940;28;20036;-60
2023/12/12 10:18:52;;;;;;;2.80;1.00;;;;;;;18.20;49.50;100113.44;5057068;28;20037;-60
2023/12/12 10:21:21;;;;;;;3.53;1.00;;;;;;;18.28;49.97;100115.19;5057230;28;20035;-60
2023/12/12 10:23:51;;;;;;;5.18;1.58;;;;;;;18.36;49.39;100117.75;5056916;28;20496;-60
2023/12/12 10:26:36;;;;;;;4.00;1.65;;;;;;;18.46;49.46;100107.38;5056862;28;20040;-60
2023/12/12 10:29:02;;;;;;;10.88;1.73;;;;;;;18.52;49.16;100101.22;5040267;28;20166;-60
2023/12/12 10:31:27;;;;;;;3.53;1.50;;;;;;;18.59;49.62;100102.09;5040203;28;20111;-60
2023/12/12 10:33:55;;;;;;;2.97;1.30;;;;;;;18.62;49.81;100098.97;5056635;28;20104;-60
2023/12/12 10:36:20;;;;;;;6.32;1.48;;;;;;;18.61;49.14;100094.59;5056377;28;20112;-60
2023/12/12 10:38:45;;;;;;;4.15;1.50;;;;;;;18.67;49.32;100085.66;5074195;28;20119;-59
2023/12/12 10:41:12;;;;;;;5.55;1.35;;;;;;;18.77;49.46;100083.41;5055796;28;20024;-60
2023/12/12 10:43:40;;;;;;;3.22;1.02;;;;;;;18.80;49.44;100080.31;5074574;28;20040;-60
2023/12/12 10:46:07;;;;;;;4.97;1.60;;;;;;;18.87;49.06;100081.16;5074437;28;20036;-59
2023/12/12 10:48:33;;;;;;;4.03;1.30;;;;;;;18.90;49.66;100074.53;5056321;28;20554;-60
2023/12/12 10:51:00;;;;;;;6.38;1.45;;;;;;;18.96;49.38;100066.41;5056656;28;20111;-60
2023/12/12 10:53:26;;;;;;;4.13;1.00;;;;;;;18.96;49.71;100066.41;5056332;28;20028;-60
2023/12/12 10:55:52;;;;;;;4.05;1.10;;;;;;;18.94;49.60;100065.78;5056446;28;20488;-60
2023/12/12 10:58:17;;;;;;;5.40;1.20;;;;;;;18.88;49.80;100063.84;5056312;28;20029;-60
2023/12/12 11:00:43;;;;;;;3.28;0.80;;;;;;;18.87;49.23;100056.75;5055588;28;20036;-60
2023/12/12 11:03:08;;;;;;;1.20;0.77;;;;;;;18.80;49.21;100050.47;5074165;28;20036;-59
2023/12/12 11:05:34;;;;;;;4.00;1.67;;;;;;;18.72;49.51;100042.50;5073386;28;20439;-58
2023/12/12 11:08:01;;;;;;;4.80;1.35;;;;;;;18.65;49.69;100035.38;5074114;28;20055;-64
2023/12/12 11:10:26;;;;;;;10.25;1.38;;;;;;;18.57;49.43;100026.34;5056467;28;20040;-62
2023/12/12 11:12:54;;;;;;;3.22;0.98;;;;;;;18.57;49.61;100033.63;5056190;28;20051;-61